sensor_id;sensor_type;location;lat;lon;timestamp;temperature;humidity
5258;DHT22;2651;51.594;9.928;2022-11-15T00:00:32;12.10;1.00
5258;DHT22;2651;51.594;9.928;2022-11-15T00:01:34;12.10;71.30
5258;DHT22;2651;51.594;9.928;2022-11-15T00:02:35;12.10;99.90
5258;DHT22;2651;51.594;9.928;2022-11-15T00:03:37;12.10;99.90
5258;DHT22;2651;51.594;9.928;2022-11-15T00:04:39;12.10;99.90
5258;DHT22;2651;51.594;9.928;2022-11-15T00:05:41;12.00;1.00
5258;DHT22;2651;51.594;9.928;2022-11-15T00:06:42;12.10;1.00
5258;DHT22;2651;51.594;9.928;2022-11-15T00:07:44;12.10;1.00
5258;DHT22;2651;51.594;9.928;2022-11-15T00:09:00;12.20;99.90
5258;DHT22;2651;51.594;9.928;2022-11-15T00:10:03;12.10;99.90
5258;DHT22;2651;51.594;9.928;2022-11-15T00:11:04;12.20;99.10
5258;DHT22;2651;51.594;9.928;2022-11-15T00:12:06;12.10;99.90
5258;DHT22;2651;51.594;9.928;2022-11-15T00:13:10;12.20;99.90
5258;DHT22;2651;51.594;9.928;2022-11-15T00:14:12;12.20;99.90
5258;DHT22;2651;51.594;9.928;2022-11-15T00:15:14;12.20;1.00
5258;DHT22;2651;51.594;9.928;2022-11-15T00:16:16;12.20;24.30
5258;DHT22;2651;51.594;9.928;2022-11-15T00:17:17;12.20;1.00
5258;DHT22;2651;51.594;9.928;2022-11-15T00:18:19;12.20;1.00
5258;DHT22;2651;51.594;9.928;2022-11-15T00:19:21;12.20;1.00
5258;DHT22;2651;51.594;9.928;2022-11-15T00:20:22;12.30;1.00
5258;DHT22;2651;51.594;9.928;2022-11-15T00:21:24;12.30;1.00
5258;DHT22;2651;51.594;9.928;2022-11-15T00:22:32;12.30;1.00
5258;DHT22;2651;51.594;9.928;2022-11-15T00:23:34;12.40;1.00
5258;DHT22;2651;51.594;9.928;2022-11-15T00:24:35;12.40;1.00
5258;DHT22;2651;51.594;9.928;2022-11-15T00:25:37;12.40;1.00
5258;DHT22;2651;51.594;9.928;2022-11-15T00:26:39;12.40;99.90
5258;DHT22;2651;51.594;9.928;2022-11-15T00:27:40;12.40;1.00
5258;DHT22;2651;51.594;9.928;2022-11-15T00:28:42;12.40;1.00
5258;DHT22;2651;51.594;9.928;2022-11-15T00:29:43;12.50;1.00
5258;DHT22;2651;51.594;9.928;2022-11-15T00:30:45;12.50;99.90
5258;DHT22;2651;51.594;9.928;2022-11-15T00:31:47;12.40;1.00
5258;DHT22;2651;51.594;9.928;2022-11-15T00:32:49;12.50;1.00
5258;DHT22;2651;51.594;9.928;2022-11-15T00:33:50;12.40;1.00
5258;DHT22;2651;51.594;9.928;2022-11-15T00:34:52;12.40;1.00
5258;DHT22;2651;51.594;9.928;2022-11-15T00:36:08;12.50;1.00
5258;DHT22;2651;51.594;9.928;2022-11-15T00:37:13;12.50;1.00
5258;DHT22;2651;51.594;9.928;2022-11-15T00:38:14;12.50;99.90
5258;DHT22;2651;51.594;9.928;2022-11-15T00:39:16;12.60;99.90
5258;DHT22;2651;51.594;9.928;2022-11-15T00:40:18;12.50;99.90
5258;DHT22;2651;51.594;9.928;2022-11-15T00:41:19;12.50;99.90
5258;DHT22;2651;51.594;9.928;2022-11-15T00:42:21;12.50;1.00
5258;DHT22;2651;51.594;9.928;2022-11-15T00:43:22;12.50;1.00
5258;DHT22;2651;51.594;9.928;2022-11-15T00:44:24;12.50;99.90
5258;DHT22;2651;51.594;9.928;2022-11-15T00:45:26;12.50;99.90
5258;DHT22;2651;51.594;9.928;2022-11-15T00:46:28;12.50;1.00
5258;DHT22;2651;51.594;9.928;2022-11-15T00:47:30;12.50;1.00
5258;DHT22;2651;51.594;9.928;2022-11-15T00:48:32;12.50;1.00
5258;DHT22;2651;51.594;9.928;2022-11-15T00:49:33;12.50;1.00
5258;DHT22;2651;51.594;9.928;2022-11-15T00:50:35;12.50;99.90
5258;DHT22;2651;51.594;9.928;2022-11-15T00:51:37;12.50;1.00
5258;DHT22;2651;51.594;9.928;2022-11-15T00:52:38;12.50;1.00
5258;DHT22;2651;51.594;9.928;2022-11-15T00:53:40;12.50;99.90
5258;DHT22;2651;51.594;9.928;2022-11-15T00:54:42;12.50;99.90
5258;DHT22;2651;51.594;9.928;2022-11-15T00:55:43;12.50;1.00
5258;DHT22;2651;51.594;9.928;2022-11-15T00:56:45;12.50;99.90
5258;DHT22;2651;51.594;9.928;2022-11-15T00:57:47;12.60;99.90
5258;DHT22;2651;51.594;9.928;2022-11-15T00:58:48;12.50;99.90
5258;DHT22;2651;51.594;9.928;2022-11-15T00:59:50;12.50;92.10
5258;DHT22;2651;51.594;9.928;2022-11-15T01:00:51;12.50;99.90
5258;DHT22;2651;51.594;9.928;2022-11-15T01:01:53;12.50;99.90
5258;DHT22;2651;51.594;9.928;2022-11-15T01:02:55;12.40;1.00
5258;DHT22;2651;51.594;9.928;2022-11-15T01:03:57;12.40;1.00
5258;DHT22;2651;51.594;9.928;2022-11-15T01:05:02;12.50;1.00
5258;DHT22;2651;51.594;9.928;2022-11-15T01:06:05;12.50;99.90
5258;DHT22;2651;51.594;9.928;2022-11-15T01:07:06;12.60;99.90
5258;DHT22;2651;51.594;9.928;2022-11-15T01:08:15;12.60;96.60
5258;DHT22;2651;51.594;9.928;2022-11-15T01:09:17;12.60;21.40
5258;DHT22;2651;51.594;9.928;2022-11-15T01:10:19;12.60;1.00
5258;DHT22;2651;51.594;9.928;2022-11-15T01:11:20;12.60;1.00
5258;DHT22;2651;51.594;9.928;2022-11-15T01:12:22;12.60;1.00
5258;DHT22;2651;51.594;9.928;2022-11-15T01:13:24;12.60;1.00
5258;DHT22;2651;51.594;9.928;2022-11-15T01:14:25;12.60;1.00
5258;DHT22;2651;51.594;9.928;2022-11-15T01:15:27;12.60;1.00
5258;DHT22;2651;51.594;9.928;2022-11-15T01:16:29;12.70;99.90
5258;DHT22;2651;51.594;9.928;2022-11-15T01:17:30;12.70;99.90
5258;DHT22;2651;51.594;9.928;2022-11-15T01:18:32;12.80;99.90
5258;DHT22;2651;51.594;9.928;2022-11-15T01:19:34;12.70;11.70
5258;DHT22;2651;51.594;9.928;2022-11-15T01:20:40;12.70;99.90
5258;DHT22;2651;51.594;9.928;2022-11-15T01:21:43;12.80;99.90
5258;DHT22;2651;51.594;9.928;2022-11-15T01:22:44;12.80;26.40
5258;DHT22;2651;51.594;9.928;2022-11-15T01:23:46;12.80;1.00
5258;DHT22;2651;51.594;9.928;2022-11-15T01:24:50;12.80;1.00
5258;DHT22;2651;51.594;9.928;2022-11-15T01:25:52;12.90;1.00
5258;DHT22;2651;51.594;9.928;2022-11-15T01:26:53;12.90;1.00
5258;DHT22;2651;51.594;9.928;2022-11-15T01:27:55;12.90;1.00
5258;DHT22;2651;51.594;9.928;2022-11-15T01:28:56;12.90;1.00
5258;DHT22;2651;51.594;9.928;2022-11-15T01:29:58;12.90;1.00
5258;DHT22;2651;51.594;9.928;2022-11-15T01:31:01;12.90;99.90
5258;DHT22;2651;51.594;9.928;2022-11-15T01:32:04;12.90;1.00
5258;DHT22;2651;51.594;9.928;2022-11-15T01:33:05;12.90;1.00
5258;DHT22;2651;51.594;9.928;2022-11-15T01:34:07;12.90;99.90
5258;DHT22;2651;51.594;9.928;2022-11-15T01:35:08;12.90;99.90
5258;DHT22;2651;51.594;9.928;2022-11-15T01:36:16;12.80;1.00
5258;DHT22;2651;51.594;9.928;2022-11-15T01:37:18;12.80;1.00
5258;DHT22;2651;51.594;9.928;2022-11-15T01:38:20;12.80;1.00
5258;DHT22;2651;51.594;9.928;2022-11-15T01:39:21;12.80;1.00
5258;DHT22;2651;51.594;9.928;2022-11-15T01:40:23;12.80;1.00
5258;DHT22;2651;51.594;9.928;2022-11-15T01:41:31;12.90;1.00
5258;DHT22;2651;51.594;9.928;2022-11-15T01:42:33;12.90;1.00
5258;DHT22;2651;51.594;9.928;2022-11-15T01:43:36;12.90;99.90
5258;DHT22;2651;51.594;9.928;2022-11-15T01:44:41;12.90;99.90
5258;DHT22;2651;51.594;9.928;2022-11-15T01:45:43;12.90;99.90
5258;DHT22;2651;51.594;9.928;2022-11-15T01:46:47;12.90;99.90
5258;DHT22;2651;51.594;9.928;2022-11-15T01:47:52;12.90;99.90
5258;DHT22;2651;51.594;9.928;2022-11-15T01:48:56;12.90;99.90
5258;DHT22;2651;51.594;9.928;2022-11-15T01:50:05;12.90;99.90
5258;DHT22;2651;51.594;9.928;2022-11-15T01:51:10;12.90;73.10
5258;DHT22;2651;51.594;9.928;2022-11-15T01:52:15;12.90;82.90
5258;DHT22;2651;51.594;9.928;2022-11-15T01:53:20;12.90;75.20
5258;DHT22;2651;51.594;9.928;2022-11-15T01:54:23;12.90;1.00
5258;DHT22;2651;51.594;9.928;2022-11-15T01:55:26;12.90;1.00
5258;DHT22;2651;51.594;9.928;2022-11-15T01:56:32;12.90;1.00
5258;DHT22;2651;51.594;9.928;2022-11-15T01:57:34;12.80;1.00
5258;DHT22;2651;51.594;9.928;2022-11-15T01:58:36;12.90;1.00
5258;DHT22;2651;51.594;9.928;2022-11-15T01:59:42;12.80;1.00
5258;DHT22;2651;51.594;9.928;2022-11-15T02:00:44;12.80;1.00
5258;DHT22;2651;51.594;9.928;2022-11-15T02:01:47;12.90;1.00
5258;DHT22;2651;51.594;9.928;2022-11-15T02:02:48;12.80;1.00
5258;DHT22;2651;51.594;9.928;2022-11-15T02:04:06;12.80;1.00
5258;DHT22;2651;51.594;9.928;2022-11-15T02:05:10;12.70;25.60
5258;DHT22;2651;51.594;9.928;2022-11-15T02:06:11;12.70;29.80
5258;DHT22;2651;51.594;9.928;2022-11-15T02:07:16;12.70;59.60
5258;DHT22;2651;51.594;9.928;2022-11-15T02:08:18;12.70;1.00
5258;DHT22;2651;51.594;9.928;2022-11-15T02:09:23;12.70;31.90
5258;DHT22;2651;51.594;9.928;2022-11-15T02:10:25;12.70;1.00
5258;DHT22;2651;51.594;9.928;2022-11-15T02:11:27;12.70;1.00
5258;DHT22;2651;51.594;9.928;2022-11-15T02:12:29;12.70;1.00
5258;DHT22;2651;51.594;9.928;2022-11-15T02:13:33;12.70;1.00
5258;DHT22;2651;51.594;9.928;2022-11-15T02:14:37;12.70;1.00
5258;DHT22;2651;51.594;9.928;2022-11-15T02:16:03;12.70;1.00
5258;DHT22;2651;51.594;9.928;2022-11-15T02:17:24;12.70;1.00
5258;DHT22;2651;51.594;9.928;2022-11-15T02:18:33;12.70;1.00
5258;DHT22;2651;51.594;9.928;2022-11-15T02:22:31;12.70;1.00
5258;DHT22;2651;51.594;9.928;2022-11-15T02:24:11;12.70;57.40
5258;DHT22;2651;51.594;9.928;2022-11-15T02:30:38;12.60;1.00
5258;DHT22;2651;51.594;9.928;2022-11-15T02:36:15;12.70;1.00
5258;DHT22;2651;51.594;9.928;2022-11-15T02:37:37;12.70;1.00
5258;DHT22;2651;51.594;9.928;2022-11-15T02:38:50;12.70;1.00
5258;DHT22;2651;51.594;9.928;2022-11-15T02:40:45;12.70;1.00
5258;DHT22;2651;51.594;9.928;2022-11-15T02:42:58;12.60;1.00
5258;DHT22;2651;51.594;9.928;2022-11-15T02:44:37;12.60;1.00
5258;DHT22;2651;51.594;9.928;2022-11-15T02:45:44;12.60;1.00
5258;DHT22;2651;51.594;9.928;2022-11-15T02:46:52;12.60;1.00
5258;DHT22;2651;51.594;9.928;2022-11-15T02:48:15;12.60;1.00
5258;DHT22;2651;51.594;9.928;2022-11-15T02:49:18;12.60;1.00
5258;DHT22;2651;51.594;9.928;2022-11-15T02:50:21;12.60;1.00
5258;DHT22;2651;51.594;9.928;2022-11-15T02:51:25;12.60;1.00
5258;DHT22;2651;51.594;9.928;2022-11-15T02:52:27;12.60;1.00
5258;DHT22;2651;51.594;9.928;2022-11-15T02:53:29;12.60;1.00
5258;DHT22;2651;51.594;9.928;2022-11-15T02:54:32;12.50;1.00
5258;DHT22;2651;51.594;9.928;2022-11-15T02:55:38;12.50;1.00
5258;DHT22;2651;51.594;9.928;2022-11-15T02:56:44;12.50;1.00
5258;DHT22;2651;51.594;9.928;2022-11-15T03:01:04;12.60;1.00
5258;DHT22;2651;51.594;9.928;2022-11-15T03:03:54;12.50;1.00
5258;DHT22;2651;51.594;9.928;2022-11-15T03:06:36;12.40;1.00
5258;DHT22;2651;51.594;9.928;2022-11-15T03:07:59;12.40;1.00
5258;DHT22;2651;51.594;9.928;2022-11-15T03:10:21;12.40;1.00
5258;DHT22;2651;51.594;9.928;2022-11-15T03:11:26;12.30;1.00
5258;DHT22;2651;51.594;9.928;2022-11-15T03:12:55;12.30;1.00
5258;DHT22;2651;51.594;9.928;2022-11-15T03:14:13;12.30;1.00
5258;DHT22;2651;51.594;9.928;2022-11-15T03:15:21;12.20;1.00
5258;DHT22;2651;51.594;9.928;2022-11-15T03:17:40;12.20;99.90
5258;DHT22;2651;51.594;9.928;2022-11-15T03:18:47;12.10;99.90
5258;DHT22;2651;51.594;9.928;2022-11-15T03:19:53;12.10;99.90
5258;DHT22;2651;51.594;9.928;2022-11-15T03:20:58;12.10;99.90
5258;DHT22;2651;51.594;9.928;2022-11-15T03:22:04;12.10;99.90
5258;DHT22;2651;51.594;9.928;2022-11-15T03:23:10;12.10;99.90
5258;DHT22;2651;51.594;9.928;2022-11-15T03:24:12;12.10;99.90
5258;DHT22;2651;51.594;9.928;2022-11-15T03:25:22;12.10;99.90
5258;DHT22;2651;51.594;9.928;2022-11-15T03:26:25;12.10;99.90
5258;DHT22;2651;51.594;9.928;2022-11-15T03:27:31;12.10;99.90
5258;DHT22;2651;51.594;9.928;2022-11-15T03:28:45;12.10;99.90
5258;DHT22;2651;51.594;9.928;2022-11-15T03:29:53;12.10;99.90
5258;DHT22;2651;51.594;9.928;2022-11-15T03:30:56;12.00;99.90
5258;DHT22;2651;51.594;9.928;2022-11-15T03:32:22;12.00;1.00
5258;DHT22;2651;51.594;9.928;2022-11-15T03:33:25;12.00;1.00
5258;DHT22;2651;51.594;9.928;2022-11-15T03:35:17;12.00;99.90
5258;DHT22;2651;51.594;9.928;2022-11-15T03:35:59;12.00;1.00
5258;DHT22;2651;51.594;9.928;2022-11-15T03:37:01;12.00;1.00
5258;DHT22;2651;51.594;9.928;2022-11-15T03:38:23;12.00;1.00
5258;DHT22;2651;51.594;9.928;2022-11-15T03:39:26;12.00;1.00
5258;DHT22;2651;51.594;9.928;2022-11-15T03:40:35;11.90;1.00
5258;DHT22;2651;51.594;9.928;2022-11-15T03:41:46;11.90;1.00
5258;DHT22;2651;51.594;9.928;2022-11-15T03:43:07;11.90;1.00
5258;DHT22;2651;51.594;9.928;2022-11-15T03:45:46;11.90;1.00
5258;DHT22;2651;51.594;9.928;2022-11-15T03:47:19;11.90;1.00
5258;DHT22;2651;51.594;9.928;2022-11-15T03:48:25;12.00;1.00
5258;DHT22;2651;51.594;9.928;2022-11-15T03:49:33;12.00;1.00
5258;DHT22;2651;51.594;9.928;2022-11-15T03:50:36;12.00;1.00
5258;DHT22;2651;51.594;9.928;2022-11-15T03:51:38;12.00;1.00
5258;DHT22;2651;51.594;9.928;2022-11-15T03:52:41;12.00;1.00
5258;DHT22;2651;51.594;9.928;2022-11-15T03:53:43;12.00;1.00
5258;DHT22;2651;51.594;9.928;2022-11-15T03:54:53;12.00;1.00
5258;DHT22;2651;51.594;9.928;2022-11-15T03:55:55;12.00;1.00
5258;DHT22;2651;51.594;9.928;2022-11-15T03:56:57;12.00;71.40
5258;DHT22;2651;51.594;9.928;2022-11-15T03:58:00;12.00;1.00
5258;DHT22;2651;51.594;9.928;2022-11-15T03:59:01;12.00;1.00
5258;DHT22;2651;51.594;9.928;2022-11-15T04:00:04;12.00;1.00
5258;DHT22;2651;51.594;9.928;2022-11-15T04:01:06;12.00;1.00
5258;DHT22;2651;51.594;9.928;2022-11-15T04:02:08;12.10;1.00
5258;DHT22;2651;51.594;9.928;2022-11-15T04:03:09;12.10;1.00
5258;DHT22;2651;51.594;9.928;2022-11-15T04:04:11;12.10;1.00
5258;DHT22;2651;51.594;9.928;2022-11-15T04:05:13;12.10;1.00
5258;DHT22;2651;51.594;9.928;2022-11-15T04:06:15;12.10;1.00
5258;DHT22;2651;51.594;9.928;2022-11-15T04:07:16;12.10;1.00
5258;DHT22;2651;51.594;9.928;2022-11-15T04:08:18;12.10;1.00
5258;DHT22;2651;51.594;9.928;2022-11-15T04:09:20;12.00;99.90
5258;DHT22;2651;51.594;9.928;2022-11-15T04:10:22;12.00;1.00
5258;DHT22;2651;51.594;9.928;2022-11-15T04:11:23;12.00;1.00
5258;DHT22;2651;51.594;9.928;2022-11-15T04:12:25;11.90;23.90
5258;DHT22;2651;51.594;9.928;2022-11-15T04:13:32;11.80;99.90
5258;DHT22;2651;51.594;9.928;2022-11-15T04:14:35;11.90;99.90
5258;DHT22;2651;51.594;9.928;2022-11-15T04:15:36;11.80;99.90
5258;DHT22;2651;51.594;9.928;2022-11-15T04:16:38;11.80;1.00
5258;DHT22;2651;51.594;9.928;2022-11-15T04:17:52;11.80;1.00
5258;DHT22;2651;51.594;9.928;2022-11-15T04:18:54;11.80;1.00
5258;DHT22;2651;51.594;9.928;2022-11-15T04:20:25;11.70;1.00
5258;DHT22;2651;51.594;9.928;2022-11-15T04:21:45;11.70;80.70
5258;DHT22;2651;51.594;9.928;2022-11-15T04:23:12;11.60;99.90
5258;DHT22;2651;51.594;9.928;2022-11-15T04:24:33;11.50;99.90
5258;DHT22;2651;51.594;9.928;2022-11-15T04:25:35;11.50;1.00
5258;DHT22;2651;51.594;9.928;2022-11-15T04:26:36;11.40;1.00
5258;DHT22;2651;51.594;9.928;2022-11-15T04:27:38;11.40;1.00
5258;DHT22;2651;51.594;9.928;2022-11-15T04:28:40;11.30;99.90
5258;DHT22;2651;51.594;9.928;2022-11-15T04:30:02;11.30;99.90
5258;DHT22;2651;51.594;9.928;2022-11-15T04:31:03;11.20;99.90
5258;DHT22;2651;51.594;9.928;2022-11-15T04:32:06;11.20;1.00
5258;DHT22;2651;51.594;9.928;2022-11-15T04:33:08;11.10;1.00
5258;DHT22;2651;51.594;9.928;2022-11-15T04:34:09;11.10;1.00
5258;DHT22;2651;51.594;9.928;2022-11-15T04:35:11;11.00;1.00
5258;DHT22;2651;51.594;9.928;2022-11-15T04:36:13;11.00;1.00
5258;DHT22;2651;51.594;9.928;2022-11-15T04:37:33;10.90;1.00
5258;DHT22;2651;51.594;9.928;2022-11-15T04:38:35;10.90;1.00
5258;DHT22;2651;51.594;9.928;2022-11-15T04:39:38;10.80;1.00
5258;DHT22;2651;51.594;9.928;2022-11-15T04:40:39;10.80;1.00
5258;DHT22;2651;51.594;9.928;2022-11-15T04:41:41;10.80;1.00
5258;DHT22;2651;51.594;9.928;2022-11-15T04:42:42;10.70;1.00
5258;DHT22;2651;51.594;9.928;2022-11-15T04:43:44;10.60;1.00
5258;DHT22;2651;51.594;9.928;2022-11-15T04:44:46;10.60;1.00
5258;DHT22;2651;51.594;9.928;2022-11-15T04:45:47;10.60;9.20
5258;DHT22;2651;51.594;9.928;2022-11-15T04:46:49;10.60;20.70
5258;DHT22;2651;51.594;9.928;2022-11-15T04:47:51;10.50;20.70
5258;DHT22;2651;51.594;9.928;2022-11-15T04:48:53;10.50;32.20
5258;DHT22;2651;51.594;9.928;2022-11-15T04:49:59;10.40;39.30
5258;DHT22;2651;51.594;9.928;2022-11-15T04:51:01;10.40;49.30
5258;DHT22;2651;51.594;9.928;2022-11-15T04:52:02;10.30;88.30
5258;DHT22;2651;51.594;9.928;2022-11-15T04:53:04;10.40;99.90
5258;DHT22;2651;51.594;9.928;2022-11-15T04:54:06;10.30;99.90
5258;DHT22;2651;51.594;9.928;2022-11-15T04:55:09;10.30;99.90
5258;DHT22;2651;51.594;9.928;2022-11-15T04:56:11;10.30;99.90
5258;DHT22;2651;51.594;9.928;2022-11-15T04:57:14;10.20;99.90
5258;DHT22;2651;51.594;9.928;2022-11-15T04:58:15;10.30;99.90
5258;DHT22;2651;51.594;9.928;2022-11-15T04:59:17;10.30;99.90
5258;DHT22;2651;51.594;9.928;2022-11-15T05:00:19;10.20;99.90
5258;DHT22;2651;51.594;9.928;2022-11-15T05:01:20;10.30;99.90
5258;DHT22;2651;51.594;9.928;2022-11-15T05:02:22;10.30;99.90
5258;DHT22;2651;51.594;9.928;2022-11-15T05:03:24;10.20;99.90
5258;DHT22;2651;51.594;9.928;2022-11-15T05:04:44;10.20;99.90
5258;DHT22;2651;51.594;9.928;2022-11-15T05:05:46;10.20;99.90
5258;DHT22;2651;51.594;9.928;2022-11-15T05:06:49;10.20;99.90
5258;DHT22;2651;51.594;9.928;2022-11-15T05:07:51;10.20;99.90
5258;DHT22;2651;51.594;9.928;2022-11-15T05:08:53;10.20;99.90
5258;DHT22;2651;51.594;9.928;2022-11-15T05:09:55;10.20;99.90
5258;DHT22;2651;51.594;9.928;2022-11-15T05:10:56;10.20;99.90
5258;DHT22;2651;51.594;9.928;2022-11-15T05:11:58;10.10;99.90
5258;DHT22;2651;51.594;9.928;2022-11-15T05:13:00;10.10;99.90
5258;DHT22;2651;51.594;9.928;2022-11-15T05:14:01;10.10;99.90
5258;DHT22;2651;51.594;9.928;2022-11-15T05:15:03;10.10;99.90
5258;DHT22;2651;51.594;9.928;2022-11-15T05:16:05;10.10;99.90
5258;DHT22;2651;51.594;9.928;2022-11-15T05:17:07;10.00;99.90
5258;DHT22;2651;51.594;9.928;2022-11-15T05:18:09;10.00;99.90
5258;DHT22;2651;51.594;9.928;2022-11-15T05:19:10;10.00;99.90
5258;DHT22;2651;51.594;9.928;2022-11-15T05:20:12;10.00;99.90
5258;DHT22;2651;51.594;9.928;2022-11-15T05:21:15;10.00;99.90
5258;DHT22;2651;51.594;9.928;2022-11-15T05:22:16;10.00;99.90
5258;DHT22;2651;51.594;9.928;2022-11-15T05:23:18;10.00;99.90
5258;DHT22;2651;51.594;9.928;2022-11-15T05:24:20;9.90;99.90
5258;DHT22;2651;51.594;9.928;2022-11-15T05:25:22;9.80;99.90
5258;DHT22;2651;51.594;9.928;2022-11-15T05:26:24;9.80;99.90
5258;DHT22;2651;51.594;9.928;2022-11-15T05:27:26;9.90;99.90
5258;DHT22;2651;51.594;9.928;2022-11-15T05:28:27;9.80;99.90
5258;DHT22;2651;51.594;9.928;2022-11-15T05:29:29;9.80;99.90
5258;DHT22;2651;51.594;9.928;2022-11-15T05:30:30;9.80;99.90
5258;DHT22;2651;51.594;9.928;2022-11-15T05:31:32;9.90;99.90
5258;DHT22;2651;51.594;9.928;2022-11-15T05:32:34;9.90;99.90
5258;DHT22;2651;51.594;9.928;2022-11-15T05:33:37;9.80;99.90
5258;DHT22;2651;51.594;9.928;2022-11-15T05:34:40;9.80;99.90
5258;DHT22;2651;51.594;9.928;2022-11-15T05:35:54;9.70;99.90
5258;DHT22;2651;51.594;9.928;2022-11-15T05:36:59;9.70;99.90
5258;DHT22;2651;51.594;9.928;2022-11-15T05:38:01;9.70;99.90
5258;DHT22;2651;51.594;9.928;2022-11-15T05:39:04;9.70;99.90
5258;DHT22;2651;51.594;9.928;2022-11-15T05:40:07;9.70;99.90
5258;DHT22;2651;51.594;9.928;2022-11-15T05:41:09;9.60;99.90
5258;DHT22;2651;51.594;9.928;2022-11-15T05:42:14;9.60;99.90
5258;DHT22;2651;51.594;9.928;2022-11-15T05:43:16;9.60;99.90
5258;DHT22;2651;51.594;9.928;2022-11-15T05:44:21;9.60;99.90
5258;DHT22;2651;51.594;9.928;2022-11-15T05:45:23;9.60;99.90
5258;DHT22;2651;51.594;9.928;2022-11-15T05:46:28;9.60;99.90
5258;DHT22;2651;51.594;9.928;2022-11-15T05:47:30;9.60;99.90
5258;DHT22;2651;51.594;9.928;2022-11-15T05:48:36;9.60;99.90
5258;DHT22;2651;51.594;9.928;2022-11-15T05:49:40;9.60;99.90
5258;DHT22;2651;51.594;9.928;2022-11-15T05:50:45;9.60;99.90
5258;DHT22;2651;51.594;9.928;2022-11-15T05:51:48;9.60;99.90
5258;DHT22;2651;51.594;9.928;2022-11-15T05:52:50;9.60;99.90
5258;DHT22;2651;51.594;9.928;2022-11-15T05:53:53;9.60;99.90
5258;DHT22;2651;51.594;9.928;2022-11-15T05:54:57;9.60;99.90
5258;DHT22;2651;51.594;9.928;2022-11-15T05:55:59;9.60;99.90
5258;DHT22;2651;51.594;9.928;2022-11-15T05:57:01;9.70;99.90
5258;DHT22;2651;51.594;9.928;2022-11-15T05:58:02;9.70;99.90
5258;DHT22;2651;51.594;9.928;2022-11-15T05:59:04;9.70;99.90
5258;DHT22;2651;51.594;9.928;2022-11-15T06:00:08;9.70;99.90
5258;DHT22;2651;51.594;9.928;2022-11-15T06:01:10;9.70;99.90
5258;DHT22;2651;51.594;9.928;2022-11-15T06:02:12;9.70;99.90
5258;DHT22;2651;51.594;9.928;2022-11-15T06:03:14;9.80;99.90
5258;DHT22;2651;51.594;9.928;2022-11-15T06:04:15;9.80;99.90
5258;DHT22;2651;51.594;9.928;2022-11-15T06:05:17;9.80;99.90
5258;DHT22;2651;51.594;9.928;2022-11-15T06:06:19;9.80;99.90
5258;DHT22;2651;51.594;9.928;2022-11-15T06:07:20;9.80;99.90
5258;DHT22;2651;51.594;9.928;2022-11-15T06:08:22;9.90;99.90
5258;DHT22;2651;51.594;9.928;2022-11-15T06:09:24;9.80;99.90
5258;DHT22;2651;51.594;9.928;2022-11-15T06:10:26;9.90;99.90
5258;DHT22;2651;51.594;9.928;2022-11-15T06:11:27;9.90;99.90
5258;DHT22;2651;51.594;9.928;2022-11-15T06:12:29;9.90;99.90
5258;DHT22;2651;51.594;9.928;2022-11-15T06:13:31;9.90;99.90
5258;DHT22;2651;51.594;9.928;2022-11-15T06:14:34;9.90;99.90
5258;DHT22;2651;51.594;9.928;2022-11-15T06:15:35;10.00;99.90
5258;DHT22;2651;51.594;9.928;2022-11-15T06:16:37;10.00;99.90
5258;DHT22;2651;51.594;9.928;2022-11-15T06:17:39;10.00;99.90
5258;DHT22;2651;51.594;9.928;2022-11-15T06:18:40;10.00;99.90
5258;DHT22;2651;51.594;9.928;2022-11-15T06:19:42;10.10;99.90
5258;DHT22;2651;51.594;9.928;2022-11-15T06:20:44;10.10;99.90
5258;DHT22;2651;51.594;9.928;2022-11-15T06:21:45;10.10;99.90
5258;DHT22;2651;51.594;9.928;2022-11-15T06:22:47;10.10;99.90
5258;DHT22;2651;51.594;9.928;2022-11-15T06:23:49;10.10;99.90
5258;DHT22;2651;51.594;9.928;2022-11-15T06:24:50;10.10;99.90
5258;DHT22;2651;51.594;9.928;2022-11-15T06:25:52;10.10;99.90
5258;DHT22;2651;51.594;9.928;2022-11-15T06:26:54;10.10;99.90
5258;DHT22;2651;51.594;9.928;2022-11-15T06:27:57;10.10;99.70
5258;DHT22;2651;51.594;9.928;2022-11-15T06:28:59;10.10;99.90
5258;DHT22;2651;51.594;9.928;2022-11-15T06:30:01;10.10;99.90
5258;DHT22;2651;51.594;9.928;2022-11-15T06:31:07;10.10;99.90
5258;DHT22;2651;51.594;9.928;2022-11-15T06:32:09;10.10;99.90
5258;DHT22;2651;51.594;9.928;2022-11-15T06:33:11;10.10;97.30
5258;DHT22;2651;51.594;9.928;2022-11-15T06:34:12;10.00;99.90
5258;DHT22;2651;51.594;9.928;2022-11-15T06:35:14;10.10;99.90
5258;DHT22;2651;51.594;9.928;2022-11-15T06:36:16;10.10;99.90
5258;DHT22;2651;51.594;9.928;2022-11-15T06:37:18;10.10;99.90
5258;DHT22;2651;51.594;9.928;2022-11-15T06:38:20;10.10;99.90
5258;DHT22;2651;51.594;9.928;2022-11-15T06:39:22;10.00;99.90
5258;DHT22;2651;51.594;9.928;2022-11-15T06:40:23;10.10;99.90
5258;DHT22;2651;51.594;9.928;2022-11-15T06:41:25;10.10;98.20
5258;DHT22;2651;51.594;9.928;2022-11-15T06:42:26;10.10;99.90
5258;DHT22;2651;51.594;9.928;2022-11-15T06:43:28;10.10;99.90
5258;DHT22;2651;51.594;9.928;2022-11-15T06:44:30;10.10;99.90
5258;DHT22;2651;51.594;9.928;2022-11-15T06:45:32;10.10;99.90
5258;DHT22;2651;51.594;9.928;2022-11-15T06:46:34;10.10;84.60
5258;DHT22;2651;51.594;9.928;2022-11-15T06:47:35;10.10;91.60
5258;DHT22;2651;51.594;9.928;2022-11-15T06:48:37;10.10;65.30
5258;DHT22;2651;51.594;9.928;2022-11-15T06:49:39;10.20;50.40
5258;DHT22;2651;51.594;9.928;2022-11-15T06:50:40;10.20;29.40
5258;DHT22;2651;51.594;9.928;2022-11-15T06:51:42;10.20;25.30
5258;DHT22;2651;51.594;9.928;2022-11-15T06:52:44;10.20;9.00
5258;DHT22;2651;51.594;9.928;2022-11-15T06:53:46;10.20;7.60
5258;DHT22;2651;51.594;9.928;2022-11-15T06:54:47;10.20;1.00
5258;DHT22;2651;51.594;9.928;2022-11-15T06:55:49;10.20;17.60
5258;DHT22;2651;51.594;9.928;2022-11-15T06:56:56;10.10;17.80
5258;DHT22;2651;51.594;9.928;2022-11-15T06:57:57;10.10;24.40
5258;DHT22;2651;51.594;9.928;2022-11-15T06:58:59;10.10;34.20
5258;DHT22;2651;51.594;9.928;2022-11-15T07:00:02;10.10;51.70
5258;DHT22;2651;51.594;9.928;2022-11-15T07:01:07;10.10;60.40
5258;DHT22;2651;51.594;9.928;2022-11-15T07:02:13;10.10;90.80
5258;DHT22;2651;51.594;9.928;2022-11-15T07:03:15;10.10;53.10
5258;DHT22;2651;51.594;9.928;2022-11-15T07:04:16;10.10;40.60
5258;DHT22;2651;51.594;9.928;2022-11-15T07:05:18;10.20;3.40
5258;DHT22;2651;51.594;9.928;2022-11-15T07:06:20;10.20;1.00
5258;DHT22;2651;51.594;9.928;2022-11-15T07:07:21;10.10;1.00
5258;DHT22;2651;51.594;9.928;2022-11-15T07:08:24;10.20;29.90
5258;DHT22;2651;51.594;9.928;2022-11-15T07:09:27;10.20;7.70
5258;DHT22;2651;51.594;9.928;2022-11-15T07:10:29;10.20;1.00
5258;DHT22;2651;51.594;9.928;2022-11-15T07:11:32;10.20;1.00
5258;DHT22;2651;51.594;9.928;2022-11-15T07:12:34;10.30;1.00
5258;DHT22;2651;51.594;9.928;2022-11-15T07:13:36;10.20;1.00
5258;DHT22;2651;51.594;9.928;2022-11-15T07:14:38;10.20;1.00
5258;DHT22;2651;51.594;9.928;2022-11-15T07:15:40;10.20;1.00
5258;DHT22;2651;51.594;9.928;2022-11-15T07:16:42;10.20;1.00
5258;DHT22;2651;51.594;9.928;2022-11-15T07:17:44;10.20;14.60
5258;DHT22;2651;51.594;9.928;2022-11-15T07:18:45;10.20;26.50
5258;DHT22;2651;51.594;9.928;2022-11-15T07:19:47;10.20;1.00
5258;DHT22;2651;51.594;9.928;2022-11-15T07:20:49;10.20;1.00
5258;DHT22;2651;51.594;9.928;2022-11-15T07:21:50;10.20;1.00
5258;DHT22;2651;51.594;9.928;2022-11-15T07:23:02;10.20;4.10
5258;DHT22;2651;51.594;9.928;2022-11-15T07:24:04;10.20;1.00
5258;DHT22;2651;51.594;9.928;2022-11-15T07:25:07;10.20;1.00
5258;DHT22;2651;51.594;9.928;2022-11-15T07:26:09;10.20;5.70
5258;DHT22;2651;51.594;9.928;2022-11-15T07:27:10;10.20;5.80
5258;DHT22;2651;51.594;9.928;2022-11-15T07:28:12;10.20;1.00